Terminal Aerodrome Forecast
Issued by NWS Hastings, NE

Home | Current Version | Previous Version | Text Only | Print | Product List | Glossary On
Versions: 1 2 3 4 5 6 7 8 9 10 11 12 13 14 15 16 17 18 19 20 21 22 23 24 25 26 27 28 29 30 31 32
000
FTUS43 KGID 221746
TAFGRI
TAF
KGRI 221746Z 2218/2318 15010KT P6SM -RA SCT025 OVC040
     FM222000 14011KT P6SM VCSH SCT025 BKN040
     FM230000 13010KT P6SM VCSH SCT015 BKN025
     FM230300 14010KT 6SM -DZ BR VCSH SCT005 OVC010
     FM230600 14010KT 4SM -DZ BR VCSH OVC005=

USA.gov is the U.S. government's official web portal to all federal, state and local government web resources and services.